createdAt,value
2017-12-31T00:01:40.544Z,36.40
2017-12-31T00:04:08.886Z,31.07
2017-12-31T00:06:36.481Z,29.37
2017-12-31T00:09:04.802Z,26.00
2017-12-31T00:11:32.450Z,41.13
2017-12-31T00:14:00.011Z,30.90
2017-12-31T00:16:27.592Z,42.70
2017-12-31T00:18:55.292Z,29.70
2017-12-31T00:21:22.911Z,36.87
2017-12-31T00:23:50.531Z,32.23
2017-12-31T00:26:18.872Z,40.97
2017-12-31T00:28:46.486Z,38.27
2017-12-31T00:31:16.548Z,40.13
2017-12-31T00:33:44.132Z,39.93
2017-12-31T00:36:11.699Z,34.30
2017-12-31T00:38:39.326Z,28.43
2017-12-31T00:41:06.924Z,26.77
2017-12-31T00:43:34.654Z,33.90
2017-12-31T00:46:02.274Z,48.67
2017-12-31T00:48:30.591Z,36.63
2017-12-31T00:50:58.186Z,29.63
2017-12-31T00:53:25.758Z,40.97
2017-12-31T00:55:53.372Z,33.97
2017-12-31T00:58:20.945Z,32.37
2017-12-31T01:00:49.280Z,32.90
2017-12-31T01:03:16.850Z,38.03
2017-12-31T01:05:44.441Z,27.00
2017-12-31T01:08:12.014Z,42.90
2017-12-31T01:10:39.686Z,25.03
2017-12-31T01:13:07.302Z,25.77
2017-12-31T01:15:34.873Z,32.93
2017-12-31T01:18:03.994Z,53.07
2017-12-31T01:20:31.633Z,25.00
2017-12-31T01:22:59.179Z,32.80
2017-12-31T01:25:29.022Z,28.03
2017-12-31T01:27:56.669Z,29.93
2017-12-31T01:30:24.247Z,27.77
2017-12-31T01:32:51.826Z,33.30
2017-12-31T01:35:19.407Z,29.90
2017-12-31T01:37:46.986Z,33.57
2017-12-31T01:40:15.315Z,25.53
2017-12-31T01:42:42.880Z,34.63
2017-12-31T01:45:10.461Z,26.97
2017-12-31T01:47:38.080Z,26.43
2017-12-31T01:50:05.682Z,26.60
2017-12-31T01:52:33.254Z,29.23
2017-12-31T01:55:01.605Z,33.23
2017-12-31T01:57:29.192Z,26.00
2017-12-31T01:59:57.673Z,24.27
2017-12-31T02:02:25.252Z,23.77
2017-12-31T02:04:52.841Z,26.03
2017-12-31T02:07:20.398Z,35.60
2017-12-31T02:09:48.026Z,27.50
2017-12-31T02:12:16.337Z,26.53
2017-12-31T02:14:43.928Z,23.93
2017-12-31T02:17:11.552Z,31.93
2017-12-31T02:19:39.145Z,27.23
2017-12-31T02:22:06.712Z,24.53
2017-12-31T02:24:35.063Z,34.37
2017-12-31T02:27:02.636Z,29.17
2017-12-31T02:29:30.223Z,25.63
2017-12-31T02:31:57.804Z,34.60
2017-12-31T02:34:25.406Z,21.47
2017-12-31T02:36:52.973Z,25.50
2017-12-31T02:39:20.529Z,27.53
2017-12-31T02:41:48.130Z,27.37
2017-12-31T02:44:15.698Z,27.47
2017-12-31T02:46:43.274Z,20.80
2017-12-31T02:49:11.616Z,24.47
2017-12-31T02:51:39.200Z,26.30
2017-12-31T02:54:06.779Z,29.57
2017-12-31T02:56:35.121Z,14.80
2017-12-31T02:59:02.683Z,20.73
2017-12-31T03:01:31.015Z,21.20
2017-12-31T03:03:58.580Z,25.60
2017-12-31T03:06:26.187Z,18.27
2017-12-31T03:08:53.864Z,19.07
2017-12-31T03:11:21.430Z,19.77
2017-12-31T03:13:49.822Z,19.87
2017-12-31T03:16:18.195Z,25.43
2017-12-31T03:18:46.558Z,15.07
2017-12-31T03:21:14.135Z,18.60
2017-12-31T03:23:41.771Z,24.60
2017-12-31T03:26:09.299Z,19.87
2017-12-31T03:28:36.887Z,19.63
2017-12-31T03:31:04.516Z,18.27
2017-12-31T03:33:32.102Z,18.47
2017-12-31T03:35:59.665Z,20.80
2017-12-31T03:38:27.252Z,14.87
2017-12-31T03:40:55.013Z,33.33
2017-12-31T03:43:22.656Z,16.20
2017-12-31T03:45:50.996Z,15.80
2017-12-31T03:48:18.572Z,11.90
2017-12-31T03:50:46.132Z,14.50
2017-12-31T03:53:13.692Z,12.70
2017-12-31T03:55:41.260Z,16.70
2017-12-31T03:58:09.220Z,12.30
2017-12-31T04:00:36.793Z,10.30
2017-12-31T04:03:04.353Z,6.60
2017-12-31T04:05:32.172Z,15.57
2017-12-31T04:08:01.157Z,11.33
2017-12-31T04:10:28.734Z,10.97
2017-12-31T04:12:57.063Z,7.97
2017-12-31T04:15:24.651Z,10.70
2017-12-31T04:17:52.225Z,10.80
2017-12-31T04:20:20.592Z,12.73
2017-12-31T04:22:48.448Z,5.90
2017-12-31T04:25:16.025Z,4.57
2017-12-31T04:27:43.837Z,4.30
2017-12-31T04:30:11.437Z,1.83
2017-12-31T04:32:38.993Z,3.47
2017-12-31T04:35:06.569Z,4.00
2017-12-31T04:37:34.124Z,2.40
2017-12-31T04:40:01.706Z,1.53
2017-12-31T04:42:29.253Z,1.40
2017-12-31T04:44:56.844Z,1.40
2017-12-31T04:47:24.412Z,1.33
2017-12-31T04:49:52.004Z,1.80
2017-12-31T04:52:19.658Z,1.27
2017-12-31T04:54:47.248Z,2.00
2017-12-31T04:57:14.800Z,1.53
2017-12-31T04:59:42.376Z,1.17
2017-12-31T05:02:09.929Z,1.27
2017-12-31T05:04:37.508Z,3.97
2017-12-31T05:07:05.105Z,1.27
2017-12-31T05:09:32.665Z,2.07
2017-12-31T05:12:00.222Z,1.57
2017-12-31T05:14:27.789Z,1.80
2017-12-31T05:16:55.376Z,2.97
2017-12-31T05:19:22.952Z,4.17
2017-12-31T05:21:50.532Z,3.00
2017-12-31T05:24:18.091Z,2.33
2017-12-31T05:26:45.677Z,4.50
2017-12-31T05:29:14.123Z,6.13
2017-12-31T05:31:42.485Z,6.70
2017-12-31T05:34:10.060Z,5.87
2017-12-31T05:36:37.616Z,5.30
2017-12-31T05:39:05.166Z,6.23
2017-12-31T05:41:32.749Z,5.60
2017-12-31T05:44:00.337Z,7.80
2017-12-31T05:46:29.430Z,5.37
2017-12-31T05:48:57.745Z,5.20
2017-12-31T05:51:25.310Z,8.33
2017-12-31T05:53:52.873Z,8.40
2017-12-31T05:56:20.521Z,5.27
2017-12-31T05:58:48.862Z,5.70
2017-12-31T06:01:17.180Z,5.43
2017-12-31T06:03:45.530Z,6.37
2017-12-31T06:06:13.891Z,7.93
2017-12-31T06:08:41.547Z,10.07
2017-12-31T06:11:09.107Z,5.27
2017-12-31T06:13:37.488Z,5.53
2017-12-31T06:16:05.038Z,10.53
2017-12-31T06:18:32.605Z,8.07
2017-12-31T06:21:00.174Z,9.40
2017-12-31T06:23:27.750Z,12.40
2017-12-31T06:25:56.076Z,10.70
2017-12-31T06:28:23.685Z,20.53
2017-12-31T06:30:52.034Z,12.63
2017-12-31T06:33:19.611Z,24.07
2017-12-31T06:35:47.184Z,20.00
2017-12-31T06:38:15.668Z,16.00
2017-12-31T06:40:44.005Z,15.43
2017-12-31T06:43:11.566Z,12.80
2017-12-31T06:45:39.162Z,9.87
2017-12-31T06:48:07.497Z,15.40
2017-12-31T06:50:35.068Z,9.67
2017-12-31T06:53:02.649Z,6.97
2017-12-31T06:55:30.236Z,16.10
2017-12-31T06:57:58.574Z,15.07
2017-12-31T07:00:26.133Z,15.83
2017-12-31T07:02:53.733Z,12.00
2017-12-31T07:05:22.061Z,15.73
2017-12-31T07:07:49.760Z,17.20
2017-12-31T07:10:17.324Z,11.67
2017-12-31T07:12:44.921Z,8.40
2017-12-31T07:15:12.484Z,10.40
2017-12-31T07:17:40.033Z,9.53
2017-12-31T07:20:07.646Z,10.80
2017-12-31T07:22:35.204Z,13.73
2017-12-31T07:25:02.845Z,10.20
2017-12-31T07:27:30.399Z,12.73
2017-12-31T07:29:58.077Z,14.03
2017-12-31T07:32:25.657Z,11.93
2017-12-31T07:34:54.861Z,10.77
2017-12-31T07:37:22.544Z,7.73
2017-12-31T07:39:50.876Z,8.43
2017-12-31T07:42:19.218Z,10.53
2017-12-31T07:44:46.779Z,13.70
2017-12-31T07:47:14.360Z,10.67
2017-12-31T07:49:42.130Z,14.90
2017-12-31T07:52:09.704Z,10.93
2017-12-31T07:54:37.273Z,8.50
2017-12-31T07:57:04.859Z,11.30
2017-12-31T07:59:32.442Z,14.93
2017-12-31T08:02:00.768Z,11.43
2017-12-31T08:04:28.362Z,8.83
2017-12-31T08:06:55.930Z,10.53
2017-12-31T08:09:23.496Z,3.97
2017-12-31T08:11:51.830Z,8.63
2017-12-31T08:14:19.385Z,17.27
2017-12-31T08:16:46.957Z,8.83
2017-12-31T08:19:14.697Z,10.70
2017-12-31T08:21:42.293Z,12.10
2017-12-31T08:24:09.864Z,14.00
2017-12-31T08:26:37.489Z,6.43
2017-12-31T08:29:05.153Z,9.93
2017-12-31T08:31:32.735Z,8.53
2017-12-31T08:34:00.321Z,21.00
2017-12-31T08:36:27.955Z,6.23
2017-12-31T08:38:55.567Z,5.57
2017-12-31T08:41:23.118Z,5.87
2017-12-31T08:43:51.482Z,6.13
2017-12-31T08:46:19.035Z,5.70
2017-12-31T08:48:46.596Z,8.60
2017-12-31T08:51:14.189Z,10.33
2017-12-31T08:53:41.825Z,5.40
2017-12-31T08:56:09.405Z,16.03
2017-12-31T08:58:37.756Z,7.73
2017-12-31T09:01:05.332Z,7.87
2017-12-31T09:03:33.811Z,6.13
2017-12-31T09:06:01.447Z,13.73
2017-12-31T09:08:28.970Z,10.23
2017-12-31T09:10:56.549Z,10.90
2017-12-31T09:13:24.131Z,4.87
2017-12-31T09:15:51.693Z,6.13
2017-12-31T09:18:19.288Z,11.63
2017-12-31T09:20:47.622Z,7.33
2017-12-31T09:23:15.174Z,9.63
2017-12-31T09:25:42.785Z,6.93
2017-12-31T09:28:12.837Z,14.73
2017-12-31T09:30:45.273Z,9.40
2017-12-31T09:33:12.878Z,8.53
2017-12-31T09:35:40.479Z,8.10
2017-12-31T09:38:08.058Z,3.63
2017-12-31T09:40:35.614Z,9.67
2017-12-31T09:43:03.225Z,15.47
2017-12-31T09:45:30.799Z,10.97
2017-12-31T09:48:02.447Z,13.27
2017-12-31T09:50:30.004Z,5.53
2017-12-31T09:52:58.339Z,7.10
2017-12-31T09:55:25.966Z,7.60
2017-12-31T09:57:53.560Z,6.40
2017-12-31T10:00:21.154Z,4.40
2017-12-31T10:02:48.731Z,10.57
2017-12-31T10:05:16.621Z,5.67
2017-12-31T10:07:44.297Z,7.57
2017-12-31T10:10:11.881Z,8.20
2017-12-31T10:12:40.233Z,10.77
2017-12-31T10:15:07.824Z,10.03
2017-12-31T10:17:36.226Z,9.30
2017-12-31T10:20:03.796Z,8.87
2017-12-31T10:22:31.390Z,6.63
2017-12-31T10:24:58.978Z,6.63
2017-12-31T10:27:27.344Z,8.03
2017-12-31T10:29:54.957Z,6.77
2017-12-31T10:32:22.524Z,6.10
2017-12-31T10:34:50.121Z,5.53
2017-12-31T10:37:18.572Z,6.20
2017-12-31T10:39:46.151Z,8.03
2017-12-31T10:42:13.888Z,10.23
2017-12-31T10:44:41.529Z,11.27
2017-12-31T10:47:09.125Z,7.73
2017-12-31T10:49:36.709Z,5.70
2017-12-31T10:52:04.271Z,8.70
2017-12-31T10:54:31.844Z,8.47
2017-12-31T10:56:59.427Z,4.97
2017-12-31T10:59:27.760Z,4.53
2017-12-31T11:01:56.125Z,8.53
2017-12-31T11:04:23.721Z,9.70
2017-12-31T11:06:51.289Z,5.77
2017-12-31T11:09:18.917Z,6.37
2017-12-31T11:11:46.515Z,6.00
2017-12-31T11:14:14.114Z,8.47
2017-12-31T11:16:41.683Z,4.50
2017-12-31T11:19:09.273Z,8.50
2017-12-31T11:21:36.909Z,5.93
2017-12-31T11:24:04.464Z,4.00
2017-12-31T11:26:32.035Z,3.27
2017-12-31T11:28:59.834Z,6.17
2017-12-31T11:31:28.996Z,6.00
2017-12-31T11:33:56.589Z,4.77
2017-12-31T11:36:24.161Z,4.53
2017-12-31T11:38:51.713Z,8.60
2017-12-31T11:41:19.293Z,6.23
2017-12-31T11:43:47.619Z,7.50
2017-12-31T11:46:15.248Z,2.93
2017-12-31T11:48:43.609Z,3.80
2017-12-31T11:51:11.178Z,5.93
2017-12-31T11:53:39.509Z,3.53
2017-12-31T11:56:07.095Z,9.67
2017-12-31T11:58:45.904Z,5.47
2017-12-31T12:01:14.616Z,13.90
2017-12-31T12:03:42.201Z,4.57
2017-12-31T12:06:10.558Z,4.50
2017-12-31T12:08:38.136Z,6.03
2017-12-31T12:11:06.505Z,5.90
2017-12-31T12:13:38.022Z,8.60
2017-12-31T12:16:05.610Z,4.73
2017-12-31T12:18:33.181Z,6.60
2017-12-31T12:21:01.574Z,5.70
2017-12-31T12:23:29.914Z,6.43
2017-12-31T12:25:57.489Z,9.20
2017-12-31T12:28:32.889Z,4.80
2017-12-31T12:31:00.620Z,3.93
2017-12-31T12:33:28.989Z,15.37
2017-12-31T12:35:57.310Z,4.43
2017-12-31T12:38:24.911Z,6.80
2017-12-31T12:40:52.490Z,5.50
2017-12-31T12:43:32.746Z,2.63
2017-12-31T12:46:00.601Z,3.03
2017-12-31T12:48:28.218Z,4.53
2017-12-31T12:50:55.802Z,4.73
2017-12-31T12:53:23.894Z,4.33
2017-12-31T12:55:51.453Z,5.47
2017-12-31T12:58:20.545Z,4.07
2017-12-31T13:00:48.170Z,4.30
2017-12-31T13:03:15.733Z,4.47
2017-12-31T13:05:43.348Z,4.97
2017-12-31T13:08:10.902Z,5.47
2017-12-31T13:10:38.477Z,3.80
2017-12-31T13:13:06.075Z,4.90
2017-12-31T13:15:34.377Z,4.73
2017-12-31T13:18:01.952Z,2.47
2017-12-31T13:20:29.512Z,6.90
2017-12-31T13:22:57.101Z,3.73
2017-12-31T13:25:25.452Z,4.37
2017-12-31T13:27:53.053Z,2.63
2017-12-31T13:30:21.370Z,3.03
2017-12-31T13:32:48.966Z,6.53
2017-12-31T13:35:16.545Z,5.33
2017-12-31T13:37:44.889Z,4.70
2017-12-31T13:40:12.471Z,6.20
2017-12-31T13:42:40.052Z,4.67
2017-12-31T13:45:08.415Z,4.87
2017-12-31T13:47:36.036Z,5.67
2017-12-31T13:50:03.630Z,3.70
2017-12-31T13:52:31.274Z,4.63
2017-12-31T13:54:58.910Z,6.03
2017-12-31T13:57:26.771Z,4.27
2017-12-31T13:59:55.184Z,6.97
2017-12-31T14:02:22.757Z,10.07
2017-12-31T14:04:50.342Z,6.10
2017-12-31T14:07:17.909Z,8.20
2017-12-31T14:09:46.270Z,5.33
2017-12-31T14:12:13.860Z,6.17
2017-12-31T14:14:41.404Z,7.50
2017-12-31T14:17:09.789Z,5.40
2017-12-31T14:19:39.065Z,3.47
2017-12-31T14:22:06.666Z,10.53
2017-12-31T14:24:34.269Z,7.13
2017-12-31T14:27:02.684Z,5.03
2017-12-31T14:29:30.258Z,4.87
2017-12-31T14:31:57.855Z,7.63
2017-12-31T14:34:25.397Z,5.07
2017-12-31T14:36:52.986Z,5.80
2017-12-31T14:39:20.569Z,7.53
2017-12-31T14:41:48.127Z,6.07
2017-12-31T14:44:15.705Z,7.03
2017-12-31T14:46:44.185Z,4.80
2017-12-31T14:49:11.764Z,5.00
2017-12-31T14:51:40.816Z,4.83
2017-12-31T14:54:08.689Z,16.07
2017-12-31T14:56:36.272Z,4.00
2017-12-31T14:59:03.824Z,4.40
2017-12-31T15:01:31.511Z,5.40
2017-12-31T15:03:59.889Z,5.40
2017-12-31T15:06:28.807Z,5.40
2017-12-31T15:08:56.433Z,4.73
2017-12-31T15:11:24.031Z,5.83
2017-12-31T15:13:51.628Z,4.60
2017-12-31T15:16:19.189Z,4.43
2017-12-31T15:18:46.807Z,3.83
2017-12-31T15:21:14.399Z,4.43
2017-12-31T15:23:41.991Z,6.47
2017-12-31T15:26:09.554Z,5.00
2017-12-31T15:28:37.109Z,8.73
2017-12-31T15:31:05.451Z,3.07
2017-12-31T15:33:33.042Z,4.30
2017-12-31T15:36:01.408Z,4.57
2017-12-31T15:38:29.004Z,2.93
2017-12-31T15:40:56.601Z,5.53
2017-12-31T15:43:24.184Z,4.50
2017-12-31T15:45:51.789Z,6.47
2017-12-31T15:48:20.153Z,4.67
2017-12-31T15:50:47.721Z,5.97
2017-12-31T15:53:15.295Z,5.37
2017-12-31T15:55:44.533Z,6.43
2017-12-31T15:58:12.102Z,3.87
2017-12-31T16:00:40.043Z,5.70
2017-12-31T16:03:08.435Z,9.70
2017-12-31T16:05:36.005Z,4.07
2017-12-31T16:08:07.842Z,5.27
2017-12-31T16:10:35.491Z,8.70
2017-12-31T16:13:04.031Z,4.00
2017-12-31T16:15:31.637Z,10.50
2017-12-31T16:17:59.189Z,6.30
2017-12-31T16:20:27.577Z,7.27
2017-12-31T16:22:55.924Z,6.00
2017-12-31T16:25:23.559Z,6.70
2017-12-31T16:27:51.279Z,8.43
2017-12-31T16:30:18.868Z,5.40
2017-12-31T16:32:47.217Z,9.03
2017-12-31T16:35:15.546Z,6.57
2017-12-31T16:37:43.178Z,7.40
2017-12-31T16:40:10.729Z,5.77
2017-12-31T16:42:38.319Z,7.83
2017-12-31T16:45:05.917Z,9.77
2017-12-31T16:47:33.504Z,5.10
2017-12-31T16:50:01.801Z,6.70
2017-12-31T16:52:29.364Z,7.53
2017-12-31T16:54:57.163Z,9.73
2017-12-31T16:57:25.545Z,8.20
2017-12-31T16:59:53.137Z,8.47
2017-12-31T17:02:20.721Z,6.20
2017-12-31T17:04:49.099Z,12.10
2017-12-31T17:07:17.454Z,7.40
2017-12-31T17:09:45.050Z,9.93
2017-12-31T17:12:12.634Z,5.50
2017-12-31T17:14:40.253Z,5.33
2017-12-31T17:17:08.605Z,5.17
2017-12-31T17:19:36.191Z,5.13
2017-12-31T17:22:04.558Z,10.50
2017-12-31T17:24:32.156Z,5.00
2017-12-31T17:26:59.721Z,5.57
2017-12-31T17:29:27.325Z,11.03
2017-12-31T17:31:54.918Z,5.93
2017-12-31T17:34:23.265Z,8.80
2017-12-31T17:36:50.852Z,6.37
2017-12-31T17:39:19.191Z,4.63
2017-12-31T17:41:46.804Z,7.40
2017-12-31T17:44:15.149Z,6.40
2017-12-31T17:46:42.717Z,5.23
2017-12-31T17:49:10.276Z,10.57
2017-12-31T17:51:37.879Z,6.80
2017-12-31T17:54:05.437Z,8.33
2017-12-31T17:56:33.068Z,6.47
2017-12-31T17:59:00.617Z,7.07
2017-12-31T18:01:28.198Z,4.60
2017-12-31T18:03:56.565Z,6.30
2017-12-31T18:06:24.123Z,5.53
2017-12-31T18:08:51.681Z,5.63
2017-12-31T18:11:19.289Z,10.13
2017-12-31T18:13:46.876Z,5.10
2017-12-31T18:16:14.451Z,5.17
2017-12-31T18:18:42.049Z,4.27
2017-12-31T18:21:10.391Z,6.67
2017-12-31T18:23:38.796Z,7.80
2017-12-31T18:26:07.167Z,4.57
2017-12-31T18:28:34.724Z,5.77
2017-12-31T18:31:02.335Z,6.73
2017-12-31T18:33:30.642Z,51.00
2017-12-31T18:35:58.227Z,9.33
2017-12-31T18:38:25.893Z,9.03
2017-12-31T18:40:53.459Z,8.17
2017-12-31T18:43:21.098Z,7.70
2017-12-31T18:45:48.778Z,5.63
2017-12-31T18:48:16.361Z,8.87
2017-12-31T18:50:44.705Z,7.70
2017-12-31T18:53:12.261Z,8.00
2017-12-31T18:55:39.843Z,7.57
2017-12-31T18:58:07.427Z,4.93
2017-12-31T19:00:35.760Z,6.60
2017-12-31T19:03:03.337Z,6.77
2017-12-31T19:05:30.920Z,8.53
2017-12-31T19:08:00.406Z,5.07
2017-12-31T19:10:28.033Z,8.27
2017-12-31T19:12:55.690Z,7.27
2017-12-31T19:15:23.266Z,9.30
2017-12-31T19:17:50.863Z,10.50
2017-12-31T19:20:18.431Z,7.20
2017-12-31T19:22:46.797Z,8.43
2017-12-31T19:25:14.362Z,8.17
2017-12-31T19:27:42.702Z,5.10
2017-12-31T19:30:12.398Z,5.40
2017-12-31T19:32:39.961Z,5.80
2017-12-31T19:35:07.548Z,8.30
2017-12-31T19:37:35.144Z,6.43
2017-12-31T19:40:03.496Z,8.27
2017-12-31T19:42:31.072Z,8.67
2017-12-31T19:44:58.663Z,6.73
2017-12-31T19:47:26.232Z,5.20
2017-12-31T19:49:55.313Z,5.60
2017-12-31T19:52:22.901Z,10.37
2017-12-31T19:54:50.484Z,9.23
2017-12-31T19:57:18.058Z,6.33
2017-12-31T19:59:45.659Z,7.23
2017-12-31T20:02:13.268Z,8.70
2017-12-31T20:04:41.622Z,8.18
2017-12-31T20:07:09.183Z,6.80
2017-12-31T20:09:36.813Z,4.87
2017-12-31T20:12:05.172Z,7.10
2017-12-31T20:14:32.756Z,7.43
2017-12-31T20:17:01.171Z,7.70
2017-12-31T20:19:28.729Z,12.20
2017-12-31T20:21:56.336Z,8.00
2017-12-31T20:24:23.930Z,4.90
2017-12-31T20:26:51.508Z,4.30
2017-12-31T20:29:19.102Z,4.30
2017-12-31T20:31:47.673Z,2.40
2017-12-31T20:34:15.246Z,10.50
2017-12-31T20:36:42.888Z,2.27
2017-12-31T20:39:10.601Z,4.27
2017-12-31T20:41:38.928Z,3.03
2017-12-31T20:44:06.508Z,2.87
2017-12-31T20:46:35.046Z,3.80
2017-12-31T20:49:03.798Z,3.03
2017-12-31T20:51:31.957Z,1.30
2017-12-31T20:53:59.540Z,2.57
2017-12-31T20:56:27.164Z,2.20
2017-12-31T20:58:54.746Z,1.67
2017-12-31T21:01:22.445Z,1.77
2017-12-31T21:03:50.781Z,1.60
2017-12-31T21:06:19.182Z,3.30
2017-12-31T21:08:46.739Z,1.10
2017-12-31T21:11:14.326Z,3.10
2017-12-31T21:13:42.707Z,13.20
2017-12-31T21:16:11.079Z,4.33
2017-12-31T21:18:38.625Z,2.23
2017-12-31T21:21:06.220Z,2.20
2017-12-31T21:23:33.793Z,1.80
2017-12-31T21:26:01.355Z,1.37
2017-12-31T21:28:28.944Z,2.20
2017-12-31T21:30:56.526Z,3.23
2017-12-31T21:33:24.208Z,3.13
2017-12-31T21:35:52.574Z,1.87
2017-12-31T21:38:20.157Z,2.07
2017-12-31T21:40:48.490Z,1.70
2017-12-31T21:43:16.067Z,2.37
2017-12-31T21:45:43.639Z,5.23
2017-12-31T21:48:11.239Z,5.53
2017-12-31T21:50:38.800Z,6.00
2017-12-31T21:53:07.147Z,2.10
2017-12-31T21:55:35.514Z,2.30
2017-12-31T21:58:03.128Z,4.60
2017-12-31T22:00:30.727Z,2.83
2017-12-31T22:02:58.305Z,2.10
2017-12-31T22:05:26.654Z,5.30
2017-12-31T22:07:54.207Z,4.30
2017-12-31T22:10:21.770Z,5.10
2017-12-31T22:12:49.357Z,6.07
2017-12-31T22:15:16.904Z,4.63
2017-12-31T22:17:44.496Z,5.13
2017-12-31T22:20:13.004Z,5.00
2017-12-31T22:22:40.580Z,6.10
2017-12-31T22:25:08.137Z,3.70
2017-12-31T22:27:35.701Z,5.87
2017-12-31T22:30:03.252Z,3.80
2017-12-31T22:32:30.838Z,3.20
2017-12-31T22:34:58.404Z,3.33
2017-12-31T22:37:25.957Z,6.80
2017-12-31T22:39:53.548Z,4.20
2017-12-31T22:42:21.921Z,12.43
2017-12-31T22:44:49.548Z,4.23
2017-12-31T22:47:17.113Z,4.33
2017-12-31T22:49:46.761Z,5.80
2017-12-31T22:52:14.340Z,4.30
2017-12-31T22:54:42.738Z,5.30
2017-12-31T22:57:10.340Z,4.83
2017-12-31T22:59:37.955Z,4.80
2017-12-31T23:02:06.287Z,7.20
2017-12-31T23:04:33.880Z,209.73
2017-12-31T23:07:02.245Z,227.23
2017-12-31T23:09:29.799Z,100.63
2017-12-31T23:11:57.388Z,106.20
2017-12-31T23:14:24.976Z,160.65
2017-12-31T23:16:52.538Z,53.20
2017-12-31T23:19:20.116Z,108.13
2017-12-31T23:21:47.731Z,151.53
2017-12-31T23:24:15.282Z,72.33
2017-12-31T23:26:43.656Z,156.13
2017-12-31T23:29:11.976Z,54.43
2017-12-31T23:31:39.605Z,98.40
2017-12-31T23:36:42.204Z,54.60
2017-12-31T23:39:10.529Z,72.27
2017-12-31T23:41:38.141Z,47.13
2017-12-31T23:44:06.505Z,49.27
2017-12-31T23:46:34.958Z,39.17
2017-12-31T23:49:02.556Z,58.90
2017-12-31T23:51:30.153Z,54.20
2017-12-31T23:53:57.870Z,52.13
2017-12-31T23:56:25.453Z,47.77
2017-12-31T23:58:53.842Z,63.47
